sensor_id;sensor_type;location;lat;lon;timestamp;P1;durP1;ratioP1;P2;durP2;ratioP2
14892;SDS011;7538;53.626;9.906;2023-06-22T00:01:16;4.22;;;3.67;;
14892;SDS011;7538;53.626;9.906;2023-06-22T00:03:43;4.40;;;3.60;;
14892;SDS011;7538;53.626;9.906;2023-06-22T00:06:11;4.97;;;3.88;;
14892;SDS011;7538;53.626;9.906;2023-06-22T00:08:38;4.82;;;4.07;;
14892;SDS011;7538;53.626;9.906;2023-06-22T00:11:05;4.55;;;3.97;;
14892;SDS011;7538;53.626;9.906;2023-06-22T00:13:31;4.72;;;4.22;;
14892;SDS011;7538;53.626;9.906;2023-06-22T00:15:58;5.10;;;4.35;;
14892;SDS011;7538;53.626;9.906;2023-06-22T00:18:25;4.20;;;3.80;;
14892;SDS011;7538;53.626;9.906;2023-06-22T00:20:53;5.40;;;4.30;;
14892;SDS011;7538;53.626;9.906;2023-06-22T00:23:24;4.13;;;3.65;;
14892;SDS011;7538;53.626;9.906;2023-06-22T00:25:51;3.92;;;3.55;;
14892;SDS011;7538;53.626;9.906;2023-06-22T00:28:18;4.28;;;3.63;;
14892;SDS011;7538;53.626;9.906;2023-06-22T00:30:45;5.38;;;3.50;;
14892;SDS011;7538;53.626;9.906;2023-06-22T00:33:12;4.40;;;4.00;;
14892;SDS011;7538;53.626;9.906;2023-06-22T00:35:39;5.53;;;3.95;;
14892;SDS011;7538;53.626;9.906;2023-06-22T00:38:06;4.07;;;3.67;;
14892;SDS011;7538;53.626;9.906;2023-06-22T00:40:34;5.05;;;4.55;;
14892;SDS011;7538;53.626;9.906;2023-06-22T00:43:01;5.55;;;3.88;;
14892;SDS011;7538;53.626;9.906;2023-06-22T00:45:28;4.50;;;3.80;;
14892;SDS011;7538;53.626;9.906;2023-06-22T00:47:56;4.75;;;4.28;;
14892;SDS011;7538;53.626;9.906;2023-06-22T00:50:24;6.20;;;4.32;;
14892;SDS011;7538;53.626;9.906;2023-06-22T00:52:52;4.47;;;4.07;;
14892;SDS011;7538;53.626;9.906;2023-06-22T00:55:22;3.95;;;3.50;;
14892;SDS011;7538;53.626;9.906;2023-06-22T00:57:52;4.57;;;3.88;;
14892;SDS011;7538;53.626;9.906;2023-06-22T01:00:21;4.20;;;3.80;;
14892;SDS011;7538;53.626;9.906;2023-06-22T01:02:50;4.63;;;3.92;;
14892;SDS011;7538;53.626;9.906;2023-06-22T01:05:17;4.45;;;4.05;;
14892;SDS011;7538;53.626;9.906;2023-06-22T01:07:47;4.82;;;4.28;;
14892;SDS011;7538;53.626;9.906;2023-06-22T01:10:27;4.90;;;4.40;;
14892;SDS011;7538;53.626;9.906;2023-06-22T01:12:59;4.22;;;3.78;;
14892;SDS011;7538;53.626;9.906;2023-06-22T01:15:31;4.63;;;4.20;;
14892;SDS011;7538;53.626;9.906;2023-06-22T01:18:02;6.43;;;4.57;;
14892;SDS011;7538;53.626;9.906;2023-06-22T01:20:30;4.72;;;4.25;;
14892;SDS011;7538;53.626;9.906;2023-06-22T01:23:04;4.88;;;4.00;;
14892;SDS011;7538;53.626;9.906;2023-06-22T01:25:36;5.72;;;4.22;;
14892;SDS011;7538;53.626;9.906;2023-06-22T01:28:15;5.43;;;4.32;;
14892;SDS011;7538;53.626;9.906;2023-06-22T01:30:50;4.47;;;4.07;;
14892;SDS011;7538;53.626;9.906;2023-06-22T01:33:31;5.38;;;4.60;;
14892;SDS011;7538;53.626;9.906;2023-06-22T01:36:00;4.85;;;4.43;;
14892;SDS011;7538;53.626;9.906;2023-06-22T01:38:28;5.05;;;4.60;;
14892;SDS011;7538;53.626;9.906;2023-06-22T01:40:55;5.90;;;5.22;;
14892;SDS011;7538;53.626;9.906;2023-06-22T01:43:23;5.95;;;4.85;;
14892;SDS011;7538;53.626;9.906;2023-06-22T01:45:54;6.70;;;5.93;;
14892;SDS011;7538;53.626;9.906;2023-06-22T01:48:21;6.25;;;5.32;;
14892;SDS011;7538;53.626;9.906;2023-06-22T01:50:51;5.63;;;5.00;;
14892;SDS011;7538;53.626;9.906;2023-06-22T01:53:18;5.43;;;4.90;;
14892;SDS011;7538;53.626;9.906;2023-06-22T01:55:46;5.25;;;4.85;;
14892;SDS011;7538;53.626;9.906;2023-06-22T01:58:13;4.60;;;4.20;;
14892;SDS011;7538;53.626;9.906;2023-06-22T02:00:41;4.63;;;4.22;;
14892;SDS011;7538;53.626;9.906;2023-06-22T02:03:14;5.00;;;4.50;;
14892;SDS011;7538;53.626;9.906;2023-06-22T02:05:47;5.57;;;4.97;;
14892;SDS011;7538;53.626;9.906;2023-06-22T02:08:19;5.32;;;4.82;;
14892;SDS011;7538;53.626;9.906;2023-06-22T02:10:48;5.45;;;4.95;;
14892;SDS011;7538;53.626;9.906;2023-06-22T02:13:16;5.97;;;5.22;;
14892;SDS011;7538;53.626;9.906;2023-06-22T02:15:44;5.80;;;5.20;;
14892;SDS011;7538;53.626;9.906;2023-06-22T02:18:13;5.40;;;4.80;;
14892;SDS011;7538;53.626;9.906;2023-06-22T02:20:40;5.55;;;5.00;;
14892;SDS011;7538;53.626;9.906;2023-06-22T02:23:07;5.78;;;5.18;;
14892;SDS011;7538;53.626;9.906;2023-06-22T02:25:34;6.72;;;5.70;;
14892;SDS011;7538;53.626;9.906;2023-06-22T02:28:02;5.93;;;5.32;;
14892;SDS011;7538;53.626;9.906;2023-06-22T02:30:29;6.47;;;5.82;;
14892;SDS011;7538;53.626;9.906;2023-06-22T02:32:56;5.75;;;5.15;;
14892;SDS011;7538;53.626;9.906;2023-06-22T02:35:26;6.70;;;5.47;;
14892;SDS011;7538;53.626;9.906;2023-06-22T02:37:56;8.27;;;6.15;;
14892;SDS011;7538;53.626;9.906;2023-06-22T02:40:24;8.35;;;7.05;;
14892;SDS011;7538;53.626;9.906;2023-06-22T02:42:51;7.38;;;6.32;;
14892;SDS011;7538;53.626;9.906;2023-06-22T02:45:18;6.53;;;5.90;;
14892;SDS011;7538;53.626;9.906;2023-06-22T02:47:45;6.15;;;5.55;;
14892;SDS011;7538;53.626;9.906;2023-06-22T02:50:12;6.32;;;5.63;;
14892;SDS011;7538;53.626;9.906;2023-06-22T02:52:41;7.18;;;5.70;;
14892;SDS011;7538;53.626;9.906;2023-06-22T02:55:08;7.43;;;6.65;;
14892;SDS011;7538;53.626;9.906;2023-06-22T02:57:35;7.50;;;6.70;;
14892;SDS011;7538;53.626;9.906;2023-06-22T03:00:02;7.55;;;6.47;;
14892;SDS011;7538;53.626;9.906;2023-06-22T03:02:38;7.40;;;6.63;;
14892;SDS011;7538;53.626;9.906;2023-06-22T03:05:05;7.53;;;6.82;;
14892;SDS011;7538;53.626;9.906;2023-06-22T03:07:34;6.93;;;5.57;;
14892;SDS011;7538;53.626;9.906;2023-06-22T03:10:04;6.15;;;5.53;;
14892;SDS011;7538;53.626;9.906;2023-06-22T03:12:31;7.63;;;6.30;;
14892;SDS011;7538;53.626;9.906;2023-06-22T03:14:58;9.40;;;7.03;;
14892;SDS011;7538;53.626;9.906;2023-06-22T03:17:24;9.35;;;8.45;;
14892;SDS011;7538;53.626;9.906;2023-06-22T03:19:51;8.55;;;7.53;;
14892;SDS011;7538;53.626;9.906;2023-06-22T03:22:18;8.18;;;6.68;;
14892;SDS011;7538;53.626;9.906;2023-06-22T03:24:45;7.38;;;6.68;;
14892;SDS011;7538;53.626;9.906;2023-06-22T03:27:13;9.27;;;7.65;;
14892;SDS011;7538;53.626;9.906;2023-06-22T03:29:39;8.45;;;7.55;;
14892;SDS011;7538;53.626;9.906;2023-06-22T03:32:06;8.00;;;7.10;;
14892;SDS011;7538;53.626;9.906;2023-06-22T03:34:33;7.55;;;6.85;;
14892;SDS011;7538;53.626;9.906;2023-06-22T03:37:02;8.38;;;6.78;;
14892;SDS011;7538;53.626;9.906;2023-06-22T03:39:29;8.35;;;7.25;;
14892;SDS011;7538;53.626;9.906;2023-06-22T03:41:56;8.27;;;7.43;;
14892;SDS011;7538;53.626;9.906;2023-06-22T03:44:24;8.73;;;7.82;;
14892;SDS011;7538;53.626;9.906;2023-06-22T03:46:51;8.52;;;7.57;;
14892;SDS011;7538;53.626;9.906;2023-06-22T03:49:17;8.73;;;7.85;;
14892;SDS011;7538;53.626;9.906;2023-06-22T03:51:44;9.93;;;8.60;;
14892;SDS011;7538;53.626;9.906;2023-06-22T03:54:11;10.10;;;8.75;;
14892;SDS011;7538;53.626;9.906;2023-06-22T03:56:38;9.07;;;8.07;;
14892;SDS011;7538;53.626;9.906;2023-06-22T03:59:04;10.88;;;8.43;;
14892;SDS011;7538;53.626;9.906;2023-06-22T04:01:33;8.80;;;7.95;;
14892;SDS011;7538;53.626;9.906;2023-06-22T04:04:00;9.57;;;8.60;;
14892;SDS011;7538;53.626;9.906;2023-06-22T04:06:26;9.90;;;8.65;;
14892;SDS011;7538;53.626;9.906;2023-06-22T04:08:53;8.30;;;7.50;;
14892;SDS011;7538;53.626;9.906;2023-06-22T04:11:20;9.30;;;7.25;;
14892;SDS011;7538;53.626;9.906;2023-06-22T04:13:46;8.57;;;7.53;;
14892;SDS011;7538;53.626;9.906;2023-06-22T04:16:16;7.47;;;6.78;;
14892;SDS011;7538;53.626;9.906;2023-06-22T04:18:44;8.18;;;7.28;;
14892;SDS011;7538;53.626;9.906;2023-06-22T04:21:12;9.05;;;8.15;;
14892;SDS011;7538;53.626;9.906;2023-06-22T04:23:39;11.32;;;8.90;;
14892;SDS011;7538;53.626;9.906;2023-06-22T04:26:06;9.77;;;8.77;;
14892;SDS011;7538;53.626;9.906;2023-06-22T04:28:33;9.30;;;8.30;;
14892;SDS011;7538;53.626;9.906;2023-06-22T04:31:00;11.43;;;9.23;;
14892;SDS011;7538;53.626;9.906;2023-06-22T04:33:27;8.88;;;7.53;;
14892;SDS011;7538;53.626;9.906;2023-06-22T04:35:56;7.10;;;6.38;;
14892;SDS011;7538;53.626;9.906;2023-06-22T04:38:26;10.20;;;8.23;;
14892;SDS011;7538;53.626;9.906;2023-06-22T04:40:53;9.82;;;8.00;;
14892;SDS011;7538;53.626;9.906;2023-06-22T04:43:19;7.25;;;6.50;;
14892;SDS011;7538;53.626;9.906;2023-06-22T04:45:46;8.00;;;7.20;;
14892;SDS011;7538;53.626;9.906;2023-06-22T04:48:17;10.60;;;7.88;;
14892;SDS011;7538;53.626;9.906;2023-06-22T04:50:44;9.20;;;7.93;;
14892;SDS011;7538;53.626;9.906;2023-06-22T04:53:12;9.20;;;8.27;;
14892;SDS011;7538;53.626;9.906;2023-06-22T04:55:39;10.30;;;8.57;;
14892;SDS011;7538;53.626;9.906;2023-06-22T04:58:10;8.40;;;7.50;;
14892;SDS011;7538;53.626;9.906;2023-06-22T05:00:37;8.18;;;7.38;;
14892;SDS011;7538;53.626;9.906;2023-06-22T05:03:05;8.18;;;6.80;;
14892;SDS011;7538;53.626;9.906;2023-06-22T05:05:36;9.52;;;7.57;;
14892;SDS011;7538;53.626;9.906;2023-06-22T05:08:03;8.27;;;7.35;;
14892;SDS011;7538;53.626;9.906;2023-06-22T05:10:33;8.75;;;7.20;;
14892;SDS011;7538;53.626;9.906;2023-06-22T05:13:00;7.38;;;6.30;;
14892;SDS011;7538;53.626;9.906;2023-06-22T05:15:26;9.43;;;7.30;;
14892;SDS011;7538;53.626;9.906;2023-06-22T05:17:55;6.50;;;5.82;;
14892;SDS011;7538;53.626;9.906;2023-06-22T05:20:23;6.30;;;5.70;;
14892;SDS011;7538;53.626;9.906;2023-06-22T05:22:50;6.15;;;5.50;;
14892;SDS011;7538;53.626;9.906;2023-06-22T05:25:17;6.95;;;5.50;;
14892;SDS011;7538;53.626;9.906;2023-06-22T05:27:45;7.10;;;5.43;;
14892;SDS011;7538;53.626;9.906;2023-06-22T05:30:12;5.90;;;5.30;;
14892;SDS011;7538;53.626;9.906;2023-06-22T05:32:39;5.68;;;4.60;;
14892;SDS011;7538;53.626;9.906;2023-06-22T05:35:06;6.85;;;5.60;;
14892;SDS011;7538;53.626;9.906;2023-06-22T05:37:33;5.22;;;4.38;;
14892;SDS011;7538;53.626;9.906;2023-06-22T05:40:00;6.70;;;4.45;;
14892;SDS011;7538;53.626;9.906;2023-06-22T05:42:28;7.00;;;4.28;;
14892;SDS011;7538;53.626;9.906;2023-06-22T05:44:56;6.53;;;4.63;;
14892;SDS011;7538;53.626;9.906;2023-06-22T05:47:23;5.32;;;4.82;;
14892;SDS011;7538;53.626;9.906;2023-06-22T05:49:50;4.40;;;3.97;;
14892;SDS011;7538;53.626;9.906;2023-06-22T05:52:17;6.25;;;4.20;;
14892;SDS011;7538;53.626;9.906;2023-06-22T05:54:44;5.80;;;3.78;;
14892;SDS011;7538;53.626;9.906;2023-06-22T05:57:10;5.47;;;3.85;;
14892;SDS011;7538;53.626;9.906;2023-06-22T05:59:37;3.65;;;3.33;;
14892;SDS011;7538;53.626;9.906;2023-06-22T06:02:05;6.05;;;3.63;;
14892;SDS011;7538;53.626;9.906;2023-06-22T06:04:32;3.80;;;3.50;;
14892;SDS011;7538;53.626;9.906;2023-06-22T06:06:59;3.70;;;3.30;;
14892;SDS011;7538;53.626;9.906;2023-06-22T06:09:26;3.85;;;3.35;;
14892;SDS011;7538;53.626;9.906;2023-06-22T06:11:53;3.50;;;3.20;;
14892;SDS011;7538;53.626;9.906;2023-06-22T06:14:19;3.67;;;3.15;;
14892;SDS011;7538;53.626;9.906;2023-06-22T06:16:46;4.15;;;3.45;;
14892;SDS011;7538;53.626;9.906;2023-06-22T06:19:15;4.22;;;3.45;;
14892;SDS011;7538;53.626;9.906;2023-06-22T06:21:42;3.63;;;3.10;;
14892;SDS011;7538;53.626;9.906;2023-06-22T06:24:09;3.95;;;3.55;;
14892;SDS011;7538;53.626;9.906;2023-06-22T06:26:35;3.00;;;2.80;;
14892;SDS011;7538;53.626;9.906;2023-06-22T06:29:02;4.43;;;3.10;;
14892;SDS011;7538;53.626;9.906;2023-06-22T06:31:29;4.30;;;2.83;;
14892;SDS011;7538;53.626;9.906;2023-06-22T06:33:56;4.75;;;3.15;;
14892;SDS011;7538;53.626;9.906;2023-06-22T06:36:24;3.10;;;2.75;;
14892;SDS011;7538;53.626;9.906;2023-06-22T06:38:51;3.78;;;2.97;;
14892;SDS011;7538;53.626;9.906;2023-06-22T06:41:18;3.63;;;3.33;;
14892;SDS011;7538;53.626;9.906;2023-06-22T06:43:46;4.05;;;2.60;;
14892;SDS011;7538;53.626;9.906;2023-06-22T06:46:12;3.85;;;2.97;;
14892;SDS011;7538;53.626;9.906;2023-06-22T06:48:39;3.55;;;2.63;;
14892;SDS011;7538;53.626;9.906;2023-06-22T06:51:06;4.82;;;2.75;;
14892;SDS011;7538;53.626;9.906;2023-06-22T06:53:37;4.22;;;3.67;;
14892;SDS011;7538;53.626;9.906;2023-06-22T06:56:04;6.25;;;3.40;;
14892;SDS011;7538;53.626;9.906;2023-06-22T06:58:31;4.47;;;3.20;;
14892;SDS011;7538;53.626;9.906;2023-06-22T07:00:58;3.28;;;2.95;;
14892;SDS011;7538;53.626;9.906;2023-06-22T07:03:25;3.70;;;3.28;;
14892;SDS011;7538;53.626;9.906;2023-06-22T07:05:52;4.30;;;3.65;;
14892;SDS011;7538;53.626;9.906;2023-06-22T07:08:19;4.30;;;3.22;;
14892;SDS011;7538;53.626;9.906;2023-06-22T07:10:47;4.20;;;3.63;;
14892;SDS011;7538;53.626;9.906;2023-06-22T07:13:13;4.22;;;3.40;;
14892;SDS011;7538;53.626;9.906;2023-06-22T07:15:40;4.40;;;3.10;;
14892;SDS011;7538;53.626;9.906;2023-06-22T07:18:07;3.65;;;3.22;;
14892;SDS011;7538;53.626;9.906;2023-06-22T07:20:34;4.53;;;3.28;;
14892;SDS011;7538;53.626;9.906;2023-06-22T07:23:01;4.65;;;3.50;;
14892;SDS011;7538;53.626;9.906;2023-06-22T07:25:28;3.35;;;2.95;;
14892;SDS011;7538;53.626;9.906;2023-06-22T07:28:00;4.05;;;3.13;;
14892;SDS011;7538;53.626;9.906;2023-06-22T07:30:28;3.60;;;3.28;;
14892;SDS011;7538;53.626;9.906;2023-06-22T07:32:55;3.72;;;3.25;;
14892;SDS011;7538;53.626;9.906;2023-06-22T07:35:22;3.05;;;2.85;;
14892;SDS011;7538;53.626;9.906;2023-06-22T07:37:49;3.50;;;3.20;;
14892;SDS011;7538;53.626;9.906;2023-06-22T07:40:16;4.18;;;3.00;;
14892;SDS011;7538;53.626;9.906;2023-06-22T07:42:43;3.03;;;2.72;;
14892;SDS011;7538;53.626;9.906;2023-06-22T07:45:14;3.38;;;3.08;;
14892;SDS011;7538;53.626;9.906;2023-06-22T07:47:41;3.13;;;2.90;;
14892;SDS011;7538;53.626;9.906;2023-06-22T07:50:08;3.70;;;3.28;;
14892;SDS011;7538;53.626;9.906;2023-06-22T07:52:36;2.90;;;2.70;;
14892;SDS011;7538;53.626;9.906;2023-06-22T07:55:03;3.30;;;3.00;;
14892;SDS011;7538;53.626;9.906;2023-06-22T07:57:30;2.92;;;2.72;;
14892;SDS011;7538;53.626;9.906;2023-06-22T07:59:58;3.90;;;3.22;;
14892;SDS011;7538;53.626;9.906;2023-06-22T08:02:27;3.85;;;2.83;;
14892;SDS011;7538;53.626;9.906;2023-06-22T08:04:54;3.20;;;2.90;;
14892;SDS011;7538;53.626;9.906;2023-06-22T08:07:20;3.03;;;2.72;;
14892;SDS011;7538;53.626;9.906;2023-06-22T08:09:47;2.88;;;2.67;;
14892;SDS011;7538;53.626;9.906;2023-06-22T08:12:15;3.42;;;3.05;;
14892;SDS011;7538;53.626;9.906;2023-06-22T08:14:42;3.35;;;3.05;;
14892;SDS011;7538;53.626;9.906;2023-06-22T08:17:11;3.50;;;3.17;;
14892;SDS011;7538;53.626;9.906;2023-06-22T08:19:39;2.80;;;2.58;;
14892;SDS011;7538;53.626;9.906;2023-06-22T08:22:06;3.30;;;3.00;;
14892;SDS011;7538;53.626;9.906;2023-06-22T08:24:33;3.30;;;3.00;;
14892;SDS011;7538;53.626;9.906;2023-06-22T08:27:00;3.40;;;3.10;;
14892;SDS011;7538;53.626;9.906;2023-06-22T08:29:27;3.50;;;3.20;;
14892;SDS011;7538;53.626;9.906;2023-06-22T08:31:54;3.08;;;2.63;;
14892;SDS011;7538;53.626;9.906;2023-06-22T08:34:20;3.30;;;3.00;;
14892;SDS011;7538;53.626;9.906;2023-06-22T08:36:51;3.10;;;2.80;;
14892;SDS011;7538;53.626;9.906;2023-06-22T08:39:18;3.15;;;2.85;;
14892;SDS011;7538;53.626;9.906;2023-06-22T08:41:45;3.53;;;2.72;;
14892;SDS011;7538;53.626;9.906;2023-06-22T08:44:12;2.88;;;2.67;;
14892;SDS011;7538;53.626;9.906;2023-06-22T08:46:39;3.38;;;3.08;;
14892;SDS011;7538;53.626;9.906;2023-06-22T08:49:06;2.55;;;2.35;;
14892;SDS011;7538;53.626;9.906;2023-06-22T08:51:34;3.22;;;2.90;;
14892;SDS011;7538;53.626;9.906;2023-06-22T08:54:03;3.28;;;3.03;;
14892;SDS011;7538;53.626;9.906;2023-06-22T08:56:30;3.25;;;2.90;;
14892;SDS011;7538;53.626;9.906;2023-06-22T08:58:56;3.75;;;3.45;;
14892;SDS011;7538;53.626;9.906;2023-06-22T09:01:23;3.47;;;3.13;;
14892;SDS011;7538;53.626;9.906;2023-06-22T09:03:50;3.40;;;3.10;;
14892;SDS011;7538;53.626;9.906;2023-06-22T09:06:22;3.53;;;3.17;;
14892;SDS011;7538;53.626;9.906;2023-06-22T09:08:49;3.97;;;3.50;;
14892;SDS011;7538;53.626;9.906;2023-06-22T09:11:18;3.80;;;3.40;;
14892;SDS011;7538;53.626;9.906;2023-06-22T09:13:45;3.50;;;3.20;;
14892;SDS011;7538;53.626;9.906;2023-06-22T09:16:12;3.80;;;3.50;;
14892;SDS011;7538;53.626;9.906;2023-06-22T09:18:39;4.65;;;3.10;;
14892;SDS011;7538;53.626;9.906;2023-06-22T09:21:07;3.58;;;2.88;;
14892;SDS011;7538;53.626;9.906;2023-06-22T09:23:33;3.08;;;2.78;;
14892;SDS011;7538;53.626;9.906;2023-06-22T09:26:00;3.78;;;3.45;;
14892;SDS011;7538;53.626;9.906;2023-06-22T09:28:30;3.70;;;3.35;;
14892;SDS011;7538;53.626;9.906;2023-06-22T09:30:58;3.67;;;3.38;;
14892;SDS011;7538;53.626;9.906;2023-06-22T09:33:25;3.88;;;3.50;;
14892;SDS011;7538;53.626;9.906;2023-06-22T09:35:52;4.45;;;3.00;;
14892;SDS011;7538;53.626;9.906;2023-06-22T09:38:19;4.70;;;3.00;;
14892;SDS011;7538;53.626;9.906;2023-06-22T09:40:46;4.72;;;3.83;;
14892;SDS011;7538;53.626;9.906;2023-06-22T09:43:13;3.83;;;3.53;;
14892;SDS011;7538;53.626;9.906;2023-06-22T09:45:41;3.72;;;3.33;;
14892;SDS011;7538;53.626;9.906;2023-06-22T09:48:08;3.28;;;2.97;;
14892;SDS011;7538;53.626;9.906;2023-06-22T09:50:35;3.90;;;3.28;;
14892;SDS011;7538;53.626;9.906;2023-06-22T09:53:02;3.45;;;3.17;;
14892;SDS011;7538;53.626;9.906;2023-06-22T09:55:29;4.32;;;3.75;;
14892;SDS011;7538;53.626;9.906;2023-06-22T09:57:56;3.30;;;3.00;;
14892;SDS011;7538;53.626;9.906;2023-06-22T10:00:23;3.72;;;2.92;;
14892;SDS011;7538;53.626;9.906;2023-06-22T10:02:53;3.67;;;3.28;;
14892;SDS011;7538;53.626;9.906;2023-06-22T10:05:20;4.70;;;3.65;;
14892;SDS011;7538;53.626;9.906;2023-06-22T10:07:47;3.97;;;3.38;;
14892;SDS011;7538;53.626;9.906;2023-06-22T10:10:14;4.05;;;3.67;;
14892;SDS011;7538;53.626;9.906;2023-06-22T10:12:41;3.50;;;3.20;;
14892;SDS011;7538;53.626;9.906;2023-06-22T10:15:10;3.38;;;3.08;;
14892;SDS011;7538;53.626;9.906;2023-06-22T10:17:36;4.93;;;3.45;;
14892;SDS011;7538;53.626;9.906;2023-06-22T10:20:06;3.88;;;3.50;;
14892;SDS011;7538;53.626;9.906;2023-06-22T10:22:37;3.95;;;3.22;;
14892;SDS011;7538;53.626;9.906;2023-06-22T10:25:05;4.22;;;3.50;;
14892;SDS011;7538;53.626;9.906;2023-06-22T10:27:32;3.70;;;3.40;;
14892;SDS011;7538;53.626;9.906;2023-06-22T10:29:59;4.18;;;3.85;;
14892;SDS011;7538;53.626;9.906;2023-06-22T10:32:26;3.92;;;3.63;;
14892;SDS011;7538;53.626;9.906;2023-06-22T10:34:54;3.72;;;3.42;;
14892;SDS011;7538;53.626;9.906;2023-06-22T10:37:22;5.63;;;3.90;;
14892;SDS011;7538;53.626;9.906;2023-06-22T10:39:49;4.25;;;3.78;;
14892;SDS011;7538;53.626;9.906;2023-06-22T10:42:16;3.88;;;3.22;;
14892;SDS011;7538;53.626;9.906;2023-06-22T10:44:43;4.50;;;3.38;;
14892;SDS011;7538;53.626;9.906;2023-06-22T10:47:10;5.45;;;3.38;;
14892;SDS011;7538;53.626;9.906;2023-06-22T10:49:37;2.90;;;2.60;;
14892;SDS011;7538;53.626;9.906;2023-06-22T10:52:04;3.95;;;3.53;;
14892;SDS011;7538;53.626;9.906;2023-06-22T10:54:34;3.58;;;3.28;;
14892;SDS011;7538;53.626;9.906;2023-06-22T10:57:01;4.47;;;4.07;;
14892;SDS011;7538;53.626;9.906;2023-06-22T10:59:28;3.65;;;3.35;;
14892;SDS011;7538;53.626;9.906;2023-06-22T11:01:55;3.83;;;3.50;;
14892;SDS011;7538;53.626;9.906;2023-06-22T11:04:22;3.67;;;3.38;;
14892;SDS011;7538;53.626;9.906;2023-06-22T11:06:49;3.80;;;3.50;;
14892;SDS011;7538;53.626;9.906;2023-06-22T11:09:17;4.53;;;4.13;;
14892;SDS011;7538;53.626;9.906;2023-06-22T11:11:47;3.42;;;3.10;;
14892;SDS011;7538;53.626;9.906;2023-06-22T11:14:15;4.50;;;3.50;;
14892;SDS011;7538;53.626;9.906;2023-06-22T11:16:42;4.15;;;3.58;;
14892;SDS011;7538;53.626;9.906;2023-06-22T11:19:08;4.88;;;3.67;;
14892;SDS011;7538;53.626;9.906;2023-06-22T11:21:35;4.18;;;3.45;;
14892;SDS011;7538;53.626;9.906;2023-06-22T11:24:02;4.80;;;3.78;;
14892;SDS011;7538;53.626;9.906;2023-06-22T11:26:29;4.15;;;3.75;;
14892;SDS011;7538;53.626;9.906;2023-06-22T11:28:58;5.80;;;3.88;;
14892;SDS011;7538;53.626;9.906;2023-06-22T11:31:25;4.90;;;4.13;;
14892;SDS011;7538;53.626;9.906;2023-06-22T11:33:51;4.68;;;4.22;;
14892;SDS011;7538;53.626;9.906;2023-06-22T11:36:18;6.20;;;4.65;;
14892;SDS011;7538;53.626;9.906;2023-06-22T11:38:45;4.93;;;4.43;;
14892;SDS011;7538;53.626;9.906;2023-06-22T11:41:12;5.40;;;4.90;;
14892;SDS011;7538;53.626;9.906;2023-06-22T11:43:39;5.40;;;4.90;;
14892;SDS011;7538;53.626;9.906;2023-06-22T11:46:07;5.32;;;4.57;;
14892;SDS011;7538;53.626;9.906;2023-06-22T11:48:34;4.70;;;4.30;;
14892;SDS011;7538;53.626;9.906;2023-06-22T11:51:01;4.53;;;4.05;;
14892;SDS011;7538;53.626;9.906;2023-06-22T11:53:28;4.30;;;3.90;;
14892;SDS011;7538;53.626;9.906;2023-06-22T11:55:55;4.50;;;4.10;;
14892;SDS011;7538;53.626;9.906;2023-06-22T11:58:22;4.05;;;3.75;;
14892;SDS011;7538;53.626;9.906;2023-06-22T12:00:49;5.32;;;4.68;;
14892;SDS011;7538;53.626;9.906;2023-06-22T12:03:18;3.92;;;3.60;;
14892;SDS011;7538;53.626;9.906;2023-06-22T12:05:46;4.03;;;3.63;;
14892;SDS011;7538;53.626;9.906;2023-06-22T12:08:13;4.47;;;4.07;;
14892;SDS011;7538;53.626;9.906;2023-06-22T12:10:40;4.25;;;3.83;;
14892;SDS011;7538;53.626;9.906;2023-06-22T12:13:06;4.75;;;4.32;;
14892;SDS011;7538;53.626;9.906;2023-06-22T12:15:33;4.45;;;4.05;;
14892;SDS011;7538;53.626;9.906;2023-06-22T12:18:00;4.78;;;3.80;;
14892;SDS011;7538;53.626;9.906;2023-06-22T12:20:29;4.78;;;4.38;;
14892;SDS011;7538;53.626;9.906;2023-06-22T12:22:55;4.75;;;4.28;;
14892;SDS011;7538;53.626;9.906;2023-06-22T12:25:23;4.20;;;3.80;;
14892;SDS011;7538;53.626;9.906;2023-06-22T12:27:50;4.30;;;3.92;;
14892;SDS011;7538;53.626;9.906;2023-06-22T12:30:17;4.60;;;3.92;;
14892;SDS011;7538;53.626;9.906;2023-06-22T12:32:44;5.22;;;4.22;;
14892;SDS011;7538;53.626;9.906;2023-06-22T12:35:10;4.97;;;4.47;;
14892;SDS011;7538;53.626;9.906;2023-06-22T12:37:40;4.40;;;4.00;;
14892;SDS011;7538;53.626;9.906;2023-06-22T12:40:07;4.85;;;4.45;;
14892;SDS011;7538;53.626;9.906;2023-06-22T12:42:35;4.50;;;4.10;;
14892;SDS011;7538;53.626;9.906;2023-06-22T12:45:03;4.43;;;4.13;;
14892;SDS011;7538;53.626;9.906;2023-06-22T12:47:30;4.70;;;4.30;;
14892;SDS011;7538;53.626;9.906;2023-06-22T12:49:57;4.50;;;4.10;;
14892;SDS011;7538;53.626;9.906;2023-06-22T12:52:24;5.55;;;4.80;;
14892;SDS011;7538;53.626;9.906;2023-06-22T12:54:52;6.13;;;4.40;;
14892;SDS011;7538;53.626;9.906;2023-06-22T12:57:19;4.60;;;4.20;;
14892;SDS011;7538;53.626;9.906;2023-06-22T12:59:46;5.65;;;5.10;;
14892;SDS011;7538;53.626;9.906;2023-06-22T13:02:13;4.55;;;4.05;;
14892;SDS011;7538;53.626;9.906;2023-06-22T13:04:39;4.28;;;3.97;;
14892;SDS011;7538;53.626;9.906;2023-06-22T13:07:08;5.00;;;4.60;;
14892;SDS011;7538;53.626;9.906;2023-06-22T13:09:35;5.95;;;4.65;;
14892;SDS011;7538;53.626;9.906;2023-06-22T13:12:04;5.53;;;5.03;;
14892;SDS011;7538;53.626;9.906;2023-06-22T13:14:32;5.18;;;4.60;;
14892;SDS011;7538;53.626;9.906;2023-06-22T13:16:58;5.10;;;4.60;;
14892;SDS011;7538;53.626;9.906;2023-06-22T13:19:25;5.43;;;4.93;;
14892;SDS011;7538;53.626;9.906;2023-06-22T13:21:57;6.93;;;5.40;;
14892;SDS011;7538;53.626;9.906;2023-06-22T13:24:24;6.72;;;5.55;;
14892;SDS011;7538;53.626;9.906;2023-06-22T13:26:50;6.50;;;6.00;;
14892;SDS011;7538;53.626;9.906;2023-06-22T13:29:18;6.32;;;5.70;;
14892;SDS011;7538;53.626;9.906;2023-06-22T13:31:45;5.38;;;4.95;;
14892;SDS011;7538;53.626;9.906;2023-06-22T13:34:12;5.55;;;5.00;;
14892;SDS011;7538;53.626;9.906;2023-06-22T13:36:39;5.57;;;5.07;;
14892;SDS011;7538;53.626;9.906;2023-06-22T13:39:06;5.95;;;5.35;;
14892;SDS011;7538;53.626;9.906;2023-06-22T13:41:33;6.65;;;6.03;;
14892;SDS011;7538;53.626;9.906;2023-06-22T13:43:59;9.18;;;6.32;;
14892;SDS011;7538;53.626;9.906;2023-06-22T13:46:27;7.40;;;6.43;;
14892;SDS011;7538;53.626;9.906;2023-06-22T13:48:54;7.75;;;6.97;;
14892;SDS011;7538;53.626;9.906;2023-06-22T13:51:21;6.40;;;5.90;;
14892;SDS011;7538;53.626;9.906;2023-06-22T13:53:48;6.60;;;6.05;;
14892;SDS011;7538;53.626;9.906;2023-06-22T13:56:15;6.78;;;6.28;;
14892;SDS011;7538;53.626;9.906;2023-06-22T13:58:41;6.55;;;5.95;;
14892;SDS011;7538;53.626;9.906;2023-06-22T14:01:09;6.10;;;5.60;;
14892;SDS011;7538;53.626;9.906;2023-06-22T14:03:37;6.63;;;6.13;;
14892;SDS011;7538;53.626;9.906;2023-06-22T14:06:04;7.22;;;6.55;;
14892;SDS011;7538;53.626;9.906;2023-06-22T14:08:31;6.43;;;5.82;;
14892;SDS011;7538;53.626;9.906;2023-06-22T14:10:58;6.50;;;6.00;;
14892;SDS011;7538;53.626;9.906;2023-06-22T14:13:25;6.50;;;5.78;;
14892;SDS011;7538;53.626;9.906;2023-06-22T14:15:52;5.97;;;5.47;;
14892;SDS011;7538;53.626;9.906;2023-06-22T14:18:19;7.25;;;5.75;;
14892;SDS011;7538;53.626;9.906;2023-06-22T14:20:48;7.10;;;6.40;;
14892;SDS011;7538;53.626;9.906;2023-06-22T14:23:15;6.72;;;6.13;;
14892;SDS011;7538;53.626;9.906;2023-06-22T14:25:42;6.22;;;5.72;;
14892;SDS011;7538;53.626;9.906;2023-06-22T14:28:09;6.45;;;5.85;;
14892;SDS011;7538;53.626;9.906;2023-06-22T14:30:36;5.95;;;5.43;;
14892;SDS011;7538;53.626;9.906;2023-06-22T14:33:03;4.95;;;4.45;;
14892;SDS011;7538;53.626;9.906;2023-06-22T14:35:29;6.40;;;5.38;;
14892;SDS011;7538;53.626;9.906;2023-06-22T14:37:57;6.70;;;5.45;;
14892;SDS011;7538;53.626;9.906;2023-06-22T14:40:24;4.75;;;4.43;;
14892;SDS011;7538;53.626;9.906;2023-06-22T14:42:51;5.65;;;5.07;;
14892;SDS011;7538;53.626;9.906;2023-06-22T14:45:18;5.78;;;5.22;;
14892;SDS011;7538;53.626;9.906;2023-06-22T14:47:45;5.43;;;4.93;;
14892;SDS011;7538;53.626;9.906;2023-06-22T14:50:12;5.22;;;4.72;;
14892;SDS011;7538;53.626;9.906;2023-06-22T14:52:38;5.60;;;5.10;;
14892;SDS011;7538;53.626;9.906;2023-06-22T14:55:07;5.70;;;5.20;;
14892;SDS011;7538;53.626;9.906;2023-06-22T14:57:34;6.40;;;5.78;;
14892;SDS011;7538;53.626;9.906;2023-06-22T15:00:01;5.70;;;5.20;;
14892;SDS011;7538;53.626;9.906;2023-06-22T15:02:28;6.28;;;5.75;;